This is the latest recevied weather packets stored in our database for station/object WX1NWA. If no packets are shown the sender has not sent any weather packets the latest 1 day(s).
| Time | Temp. | Humidity | Pressure | Rain* | Wind** | Luminosity | Snow |
|---|---|---|---|---|---|---|---|
| 1778027710 | 8.89° C | 99% | 1010.4 hPa | 3.05 mm | 0.89 m/s, 310° | 0 W/m² | - |
| 1778027406 | 9.44° C | 99% | 1010.2 hPa | 3.05 mm | 0.45 m/s, 292° | 0 W/m² | - |
| 1778027102 | 9.44° C | 99% | 1010.2 hPa | 0 mm | 0.89 m/s, 297° | 1 W/m² | - |
| 1778026797 | 9.44° C | 99% | 1009.9 hPa | 0 mm | 0.89 m/s, 271° | 0 W/m² | - |
| 1778026494 | 9.44° C | 99% | 1009.6 hPa | 0 mm | 0.45 m/s, 287° | 2 W/m² | - |
| 1778026192 | 10° C | 99% | 1009.6 hPa | 0 mm | 0.45 m/s, 293° | 3 W/m² | - |
| 1778025889 | 10° C | 99% | 1009.6 hPa | 0 mm | 0.45 m/s, 290° | 4 W/m² | - |
| 1778025586 | 10.56° C | 99% | 1009.9 hPa | 0 mm | 0.89 m/s, 325° | 4 W/m² | - |
| 1778025284 | 10.56° C | 99% | 1009.6 hPa | 1.78 mm | 0.89 m/s, 288° | 7 W/m² | - |
| 1778024981 | 10.56° C | 99% | 1010 hPa | 1.78 mm | 0.45 m/s, 290° | 8 W/m² | - |
| 1778024678 | 10.56° C | 99% | 1010.1 hPa | 1.78 mm | 0.89 m/s, 301° | 6 W/m² | - |
| 1778024375 | 11.11° C | 99% | 1009.6 hPa | 0 mm | 0.45 m/s, 297° | 5 W/m² | - |
| 1778024073 | 11.11° C | 99% | 1010.2 hPa | 0 mm | 1.34 m/s, 316° | 6 W/m² | - |
| 1778023770 | 11.11° C | 99% | 1009.7 hPa | 0 mm | 0.89 m/s, 284° | 6 W/m² | - |
| 1778023468 | 11.11° C | 99% | 1009 hPa | 0 mm | 0 m/s | 15 W/m² | - |
| 1778023164 | 11.11° C | 99% | 1009.5 hPa | 0 mm | 0.89 m/s, 294° | 14 W/m² | - |
| 1778022862 | 11.67° C | 99% | 1009.5 hPa | 0 mm | 0.45 m/s, 307° | 10 W/m² | - |
| 1778022560 | 11.67° C | 99% | 1009.5 hPa | 0 mm | 0.45 m/s, 327° | 28 W/m² | - |
| 1778022262 | 11.67° C | 99% | 1009.6 hPa | 0 mm | 0.45 m/s, 301° | 21 W/m² | - |
| 1778021953 | 11.67° C | 99% | 1009.7 hPa | 0 mm | 0.89 m/s, 297° | 13 W/m² | - |
| 1778021651 | 12.22° C | 99% | 1009.8 hPa | 0 mm | 1.79 m/s, 297° | 11 W/m² | - |
| 1778021352 | 12.22° C | 99% | 1009.3 hPa | 0 mm | 0.89 m/s, 315° | 13 W/m² | - |
| 1778021049 | 12.22° C | 99% | 1009.6 hPa | 0 mm | 1.34 m/s, 282° | 12 W/m² | - |
| 1778020746 | 12.22° C | 99% | 1009.1 hPa | 0 mm | 0.45 m/s, 299° | 23 W/m² | - |
| 1778020443 | 12.22° C | 99% | 1009.2 hPa | 0 mm | 0.89 m/s, 296° | 25 W/m² | - |
* Rain latest hour (hover to see other rain measurements)
** Current wind speed in m/s (hover to see current wind gust speed)